sensor_id;sensor_type;location;lat;lon;timestamp;temperature;humidity
19248;DHT22;9758;48.640;8.148;2023-11-22T00:00:33;11.50;61.90
19248;DHT22;9758;48.640;8.148;2023-11-22T00:03:00;11.50;62.60
19248;DHT22;9758;48.640;8.148;2023-11-22T00:05:27;11.50;61.80
19248;DHT22;9758;48.640;8.148;2023-11-22T00:07:55;11.40;61.80
19248;DHT22;9758;48.640;8.148;2023-11-22T00:10:22;11.40;61.80
19248;DHT22;9758;48.640;8.148;2023-11-22T00:12:49;11.30;61.90
19248;DHT22;9758;48.640;8.148;2023-11-22T00:15:16;11.30;62.00
19248;DHT22;9758;48.640;8.148;2023-11-22T00:17:44;11.20;62.00
19248;DHT22;9758;48.640;8.148;2023-11-22T00:20:11;11.10;61.90
19248;DHT22;9758;48.640;8.148;2023-11-22T00:22:38;11.10;62.10
19248;DHT22;9758;48.640;8.148;2023-11-22T00:25:06;11.00;62.20
19248;DHT22;9758;48.640;8.148;2023-11-22T00:27:34;10.80;62.00
19248;DHT22;9758;48.640;8.148;2023-11-22T00:30:02;10.70;62.30
19248;DHT22;9758;48.640;8.148;2023-11-22T00:32:29;10.70;62.50
19248;DHT22;9758;48.640;8.148;2023-11-22T00:34:57;10.60;62.50
19248;DHT22;9758;48.640;8.148;2023-11-22T00:37:24;10.60;62.50
19248;DHT22;9758;48.640;8.148;2023-11-22T00:39:50;10.60;62.50
19248;DHT22;9758;48.640;8.148;2023-11-22T00:42:19;10.60;62.50
19248;DHT22;9758;48.640;8.148;2023-11-22T00:44:46;10.50;62.50
19248;DHT22;9758;48.640;8.148;2023-11-22T00:47:13;10.50;62.40
19248;DHT22;9758;48.640;8.148;2023-11-22T00:49:42;10.50;62.30
19248;DHT22;9758;48.640;8.148;2023-11-22T00:52:08;10.40;62.30
19248;DHT22;9758;48.640;8.148;2023-11-22T00:54:35;10.40;62.50
19248;DHT22;9758;48.640;8.148;2023-11-22T00:57:02;10.30;62.50
19248;DHT22;9758;48.640;8.148;2023-11-22T00:59:30;10.30;62.50
19248;DHT22;9758;48.640;8.148;2023-11-22T01:01:57;10.20;62.50
19248;DHT22;9758;48.640;8.148;2023-11-22T01:04:24;10.20;62.50
19248;DHT22;9758;48.640;8.148;2023-11-22T01:06:50;10.20;62.60
19248;DHT22;9758;48.640;8.148;2023-11-22T01:09:17;10.10;62.40
19248;DHT22;9758;48.640;8.148;2023-11-22T01:11:44;10.10;62.50
19248;DHT22;9758;48.640;8.148;2023-11-22T01:14:11;10.00;62.60
19248;DHT22;9758;48.640;8.148;2023-11-22T01:16:39;10.10;62.80
19248;DHT22;9758;48.640;8.148;2023-11-22T01:19:05;10.10;62.80
19248;DHT22;9758;48.640;8.148;2023-11-22T01:21:34;10.10;62.80
19248;DHT22;9758;48.640;8.148;2023-11-22T01:24:01;10.10;62.60
19248;DHT22;9758;48.640;8.148;2023-11-22T01:26:28;10.20;62.60
19248;DHT22;9758;48.640;8.148;2023-11-22T01:28:56;10.20;62.30
19248;DHT22;9758;48.640;8.148;2023-11-22T01:31:23;10.00;62.00
19248;DHT22;9758;48.640;8.148;2023-11-22T01:33:51;9.90;62.40
19248;DHT22;9758;48.640;8.148;2023-11-22T01:36:18;9.90;62.60
19248;DHT22;9758;48.640;8.148;2023-11-22T01:38:45;9.90;62.70
19248;DHT22;9758;48.640;8.148;2023-11-22T01:41:11;9.90;62.70
19248;DHT22;9758;48.640;8.148;2023-11-22T01:43:39;9.90;62.70
19248;DHT22;9758;48.640;8.148;2023-11-22T01:46:07;9.80;62.60
19248;DHT22;9758;48.640;8.148;2023-11-22T01:48:34;9.80;62.60
19248;DHT22;9758;48.640;8.148;2023-11-22T01:51:03;9.80;62.60
19248;DHT22;9758;48.640;8.148;2023-11-22T01:53:31;9.80;62.70
19248;DHT22;9758;48.640;8.148;2023-11-22T01:55:58;9.80;62.70
19248;DHT22;9758;48.640;8.148;2023-11-22T01:58:25;9.80;62.60
19248;DHT22;9758;48.640;8.148;2023-11-22T02:00:52;9.80;62.50
19248;DHT22;9758;48.640;8.148;2023-11-22T02:03:19;9.80;62.30
19248;DHT22;9758;48.640;8.148;2023-11-22T02:05:46;9.80;62.40
19248;DHT22;9758;48.640;8.148;2023-11-22T02:08:14;9.80;62.40
19248;DHT22;9758;48.640;8.148;2023-11-22T02:10:41;9.80;62.50
19248;DHT22;9758;48.640;8.148;2023-11-22T02:13:10;9.80;62.50
19248;DHT22;9758;48.640;8.148;2023-11-22T02:15:38;9.80;62.30
19248;DHT22;9758;48.640;8.148;2023-11-22T02:18:05;9.80;62.30
19248;DHT22;9758;48.640;8.148;2023-11-22T02:20:32;9.80;62.30
19248;DHT22;9758;48.640;8.148;2023-11-22T02:23:07;9.70;62.10
19248;DHT22;9758;48.640;8.148;2023-11-22T02:25:34;9.70;62.30
19248;DHT22;9758;48.640;8.148;2023-11-22T02:28:01;9.70;62.20
19248;DHT22;9758;48.640;8.148;2023-11-22T02:30:28;9.60;62.90
19248;DHT22;9758;48.640;8.148;2023-11-22T02:32:55;9.60;62.20
19248;DHT22;9758;48.640;8.148;2023-11-22T02:35:22;9.50;62.00
19248;DHT22;9758;48.640;8.148;2023-11-22T02:37:49;9.40;61.80
19248;DHT22;9758;48.640;8.148;2023-11-22T02:40:19;9.20;61.80
19248;DHT22;9758;48.640;8.148;2023-11-22T02:42:46;9.00;62.00
19248;DHT22;9758;48.640;8.148;2023-11-22T02:45:13;8.80;62.30
19248;DHT22;9758;48.640;8.148;2023-11-22T02:47:40;8.70;62.70
19248;DHT22;9758;48.640;8.148;2023-11-22T02:50:09;8.60;62.90
19248;DHT22;9758;48.640;8.148;2023-11-22T02:52:37;8.60;62.90
19248;DHT22;9758;48.640;8.148;2023-11-22T02:55:04;8.50;63.00
19248;DHT22;9758;48.640;8.148;2023-11-22T02:57:33;8.50;63.00
19248;DHT22;9758;48.640;8.148;2023-11-22T02:59:59;8.40;63.00
19248;DHT22;9758;48.640;8.148;2023-11-22T03:02:26;8.30;63.20
19248;DHT22;9758;48.640;8.148;2023-11-22T03:04:53;8.30;63.20
19248;DHT22;9758;48.640;8.148;2023-11-22T03:07:20;8.30;63.30
19248;DHT22;9758;48.640;8.148;2023-11-22T03:09:47;8.30;63.30
19248;DHT22;9758;48.640;8.148;2023-11-22T03:12:15;8.30;63.30
19248;DHT22;9758;48.640;8.148;2023-11-22T03:14:47;8.30;63.30
19248;DHT22;9758;48.640;8.148;2023-11-22T03:17:15;8.30;63.20
19248;DHT22;9758;48.640;8.148;2023-11-22T03:19:42;8.40;63.20
19248;DHT22;9758;48.640;8.148;2023-11-22T03:22:10;8.40;63.10
19248;DHT22;9758;48.640;8.148;2023-11-22T03:24:38;8.40;62.90
19248;DHT22;9758;48.640;8.148;2023-11-22T03:27:04;8.30;62.90
19248;DHT22;9758;48.640;8.148;2023-11-22T03:29:32;8.30;62.80
19248;DHT22;9758;48.640;8.148;2023-11-22T03:32:01;8.30;62.70
19248;DHT22;9758;48.640;8.148;2023-11-22T03:34:28;8.30;62.90
19248;DHT22;9758;48.640;8.148;2023-11-22T03:36:55;8.30;63.00
19248;DHT22;9758;48.640;8.148;2023-11-22T03:39:22;8.40;63.00
19248;DHT22;9758;48.640;8.148;2023-11-22T03:41:50;8.40;62.70
19248;DHT22;9758;48.640;8.148;2023-11-22T03:44:17;8.40;62.70
19248;DHT22;9758;48.640;8.148;2023-11-22T03:46:44;8.50;62.70
19248;DHT22;9758;48.640;8.148;2023-11-22T03:49:12;8.50;62.40
19248;DHT22;9758;48.640;8.148;2023-11-22T03:51:40;8.40;62.10
19248;DHT22;9758;48.640;8.148;2023-11-22T03:54:07;8.30;62.20
19248;DHT22;9758;48.640;8.148;2023-11-22T03:56:35;8.20;62.40
19248;DHT22;9758;48.640;8.148;2023-11-22T03:59:02;8.20;62.40
19248;DHT22;9758;48.640;8.148;2023-11-22T04:01:29;8.20;62.40
19248;DHT22;9758;48.640;8.148;2023-11-22T04:03:56;8.10;62.40
19248;DHT22;9758;48.640;8.148;2023-11-22T04:06:24;8.10;62.40
19248;DHT22;9758;48.640;8.148;2023-11-22T04:08:51;8.10;62.40
19248;DHT22;9758;48.640;8.148;2023-11-22T04:11:33;8.10;62.40
19248;DHT22;9758;48.640;8.148;2023-11-22T04:14:00;8.10;62.40
19248;DHT22;9758;48.640;8.148;2023-11-22T04:16:27;8.00;62.00
19248;DHT22;9758;48.640;8.148;2023-11-22T04:18:53;8.00;62.10
19248;DHT22;9758;48.640;8.148;2023-11-22T04:21:20;7.90;61.80
19248;DHT22;9758;48.640;8.148;2023-11-22T04:23:48;7.80;61.90
19248;DHT22;9758;48.640;8.148;2023-11-22T04:26:16;7.70;62.00
19248;DHT22;9758;48.640;8.148;2023-11-22T04:28:45;7.70;62.20
19248;DHT22;9758;48.640;8.148;2023-11-22T04:31:12;7.70;62.20
19248;DHT22;9758;48.640;8.148;2023-11-22T04:33:41;7.70;62.20
19248;DHT22;9758;48.640;8.148;2023-11-22T04:36:08;7.70;62.00
19248;DHT22;9758;48.640;8.148;2023-11-22T04:38:34;7.70;62.00
19248;DHT22;9758;48.640;8.148;2023-11-22T04:41:02;7.70;61.90
19248;DHT22;9758;48.640;8.148;2023-11-22T04:43:29;7.70;61.70
19248;DHT22;9758;48.640;8.148;2023-11-22T04:45:57;7.60;61.70
19248;DHT22;9758;48.640;8.148;2023-11-22T04:48:24;7.50;61.50
19248;DHT22;9758;48.640;8.148;2023-11-22T04:50:51;7.50;61.70
19248;DHT22;9758;48.640;8.148;2023-11-22T04:53:19;7.40;61.70
19248;DHT22;9758;48.640;8.148;2023-11-22T04:55:45;7.30;61.80
19248;DHT22;9758;48.640;8.148;2023-11-22T04:58:15;7.30;62.00
19248;DHT22;9758;48.640;8.148;2023-11-22T05:00:42;7.30;62.00
19248;DHT22;9758;48.640;8.148;2023-11-22T05:03:08;7.20;61.90
19248;DHT22;9758;48.640;8.148;2023-11-22T05:05:35;7.20;61.90
19248;DHT22;9758;48.640;8.148;2023-11-22T05:08:02;7.20;62.00
19248;DHT22;9758;48.640;8.148;2023-11-22T05:10:29;7.20;62.00
19248;DHT22;9758;48.640;8.148;2023-11-22T05:12:55;7.20;62.00
19248;DHT22;9758;48.640;8.148;2023-11-22T05:15:26;7.20;61.90
19248;DHT22;9758;48.640;8.148;2023-11-22T05:17:53;7.20;62.00
19248;DHT22;9758;48.640;8.148;2023-11-22T05:20:20;7.20;62.00
19248;DHT22;9758;48.640;8.148;2023-11-22T05:22:46;7.30;62.00
19248;DHT22;9758;48.640;8.148;2023-11-22T05:25:13;7.30;62.00
19248;DHT22;9758;48.640;8.148;2023-11-22T05:27:40;7.30;62.00
19248;DHT22;9758;48.640;8.148;2023-11-22T05:30:08;7.30;62.00
19248;DHT22;9758;48.640;8.148;2023-11-22T05:32:37;7.30;62.00
19248;DHT22;9758;48.640;8.148;2023-11-22T05:35:05;7.40;62.00
19248;DHT22;9758;48.640;8.148;2023-11-22T05:37:35;7.40;62.00
19248;DHT22;9758;48.640;8.148;2023-11-22T05:40:02;7.50;62.00
19248;DHT22;9758;48.640;8.148;2023-11-22T05:42:30;7.60;62.10
19248;DHT22;9758;48.640;8.148;2023-11-22T05:44:57;7.60;61.80
19248;DHT22;9758;48.640;8.148;2023-11-22T05:47:24;7.60;61.70
19248;DHT22;9758;48.640;8.148;2023-11-22T05:49:52;7.70;61.80
19248;DHT22;9758;48.640;8.148;2023-11-22T05:52:19;7.70;61.80
19248;DHT22;9758;48.640;8.148;2023-11-22T05:54:48;7.70;61.70
19248;DHT22;9758;48.640;8.148;2023-11-22T05:57:15;7.70;61.70
19248;DHT22;9758;48.640;8.148;2023-11-22T05:59:42;7.80;61.50
19248;DHT22;9758;48.640;8.148;2023-11-22T06:02:09;7.80;61.50
19248;DHT22;9758;48.640;8.148;2023-11-22T06:04:35;7.80;61.40
19248;DHT22;9758;48.640;8.148;2023-11-22T06:07:04;7.70;61.30
19248;DHT22;9758;48.640;8.148;2023-11-22T06:09:31;7.70;61.40
19248;DHT22;9758;48.640;8.148;2023-11-22T06:11:59;7.70;61.30
19248;DHT22;9758;48.640;8.148;2023-11-22T06:14:26;7.60;61.30
19248;DHT22;9758;48.640;8.148;2023-11-22T06:16:52;7.60;61.30
19248;DHT22;9758;48.640;8.148;2023-11-22T06:19:19;7.50;61.40
19248;DHT22;9758;48.640;8.148;2023-11-22T06:21:46;7.50;61.70
19248;DHT22;9758;48.640;8.148;2023-11-22T06:24:14;7.50;61.80
19248;DHT22;9758;48.640;8.148;2023-11-22T06:26:42;7.50;61.80
19248;DHT22;9758;48.640;8.148;2023-11-22T06:29:11;7.60;61.80
19248;DHT22;9758;48.640;8.148;2023-11-22T06:31:38;7.60;61.80
19248;DHT22;9758;48.640;8.148;2023-11-22T06:34:05;7.60;61.70
19248;DHT22;9758;48.640;8.148;2023-11-22T06:36:32;7.60;61.70
19248;DHT22;9758;48.640;8.148;2023-11-22T06:38:59;7.60;61.70
19248;DHT22;9758;48.640;8.148;2023-11-22T06:41:27;7.60;61.70
19248;DHT22;9758;48.640;8.148;2023-11-22T06:43:54;7.70;61.70
19248;DHT22;9758;48.640;8.148;2023-11-22T06:46:21;7.60;61.60
19248;DHT22;9758;48.640;8.148;2023-11-22T06:48:48;7.60;61.50
19248;DHT22;9758;48.640;8.148;2023-11-22T06:51:15;7.60;61.40
19248;DHT22;9758;48.640;8.148;2023-11-22T06:53:43;7.60;61.50
19248;DHT22;9758;48.640;8.148;2023-11-22T06:56:11;7.60;61.50
19248;DHT22;9758;48.640;8.148;2023-11-22T06:58:39;7.60;61.40
19248;DHT22;9758;48.640;8.148;2023-11-22T07:01:06;7.50;61.40
19248;DHT22;9758;48.640;8.148;2023-11-22T07:03:36;7.50;61.50
19248;DHT22;9758;48.640;8.148;2023-11-22T07:06:03;7.40;61.30
19248;DHT22;9758;48.640;8.148;2023-11-22T07:08:31;7.40;61.40
19248;DHT22;9758;48.640;8.148;2023-11-22T07:10:58;7.40;61.50
19248;DHT22;9758;48.640;8.148;2023-11-22T07:13:24;7.30;61.40
19248;DHT22;9758;48.640;8.148;2023-11-22T07:15:53;7.30;61.60
19248;DHT22;9758;48.640;8.148;2023-11-22T07:18:20;7.30;61.70
19248;DHT22;9758;48.640;8.148;2023-11-22T07:20:50;7.30;61.70
19248;DHT22;9758;48.640;8.148;2023-11-22T07:23:19;7.30;61.70
19248;DHT22;9758;48.640;8.148;2023-11-22T07:25:46;7.30;62.40
19248;DHT22;9758;48.640;8.148;2023-11-22T07:28:13;7.30;61.80
19248;DHT22;9758;48.640;8.148;2023-11-22T07:30:40;7.30;61.70
19248;DHT22;9758;48.640;8.148;2023-11-22T07:33:08;7.30;61.60
19248;DHT22;9758;48.640;8.148;2023-11-22T07:35:36;7.30;61.50
19248;DHT22;9758;48.640;8.148;2023-11-22T07:38:04;7.30;61.40
19248;DHT22;9758;48.640;8.148;2023-11-22T07:40:44;7.30;61.50
19248;DHT22;9758;48.640;8.148;2023-11-22T07:43:11;7.30;61.40
19248;DHT22;9758;48.640;8.148;2023-11-22T07:45:38;7.30;61.40
19248;DHT22;9758;48.640;8.148;2023-11-22T07:48:08;7.30;61.40
19248;DHT22;9758;48.640;8.148;2023-11-22T07:50:37;7.30;61.30
19248;DHT22;9758;48.640;8.148;2023-11-22T07:53:04;7.20;61.20
19248;DHT22;9758;48.640;8.148;2023-11-22T07:55:34;7.20;61.20
19248;DHT22;9758;48.640;8.148;2023-11-22T07:58:03;7.20;61.10
19248;DHT22;9758;48.640;8.148;2023-11-22T08:00:31;7.20;61.20
19248;DHT22;9758;48.640;8.148;2023-11-22T08:02:59;7.10;61.20
19248;DHT22;9758;48.640;8.148;2023-11-22T08:05:29;7.10;61.20
19248;DHT22;9758;48.640;8.148;2023-11-22T08:08:02;7.10;61.30
19248;DHT22;9758;48.640;8.148;2023-11-22T08:10:32;7.10;61.30
19248;DHT22;9758;48.640;8.148;2023-11-22T08:13:00;7.10;61.30
19248;DHT22;9758;48.640;8.148;2023-11-22T08:15:27;7.10;61.20
19248;DHT22;9758;48.640;8.148;2023-11-22T08:18:00;7.10;61.20
19248;DHT22;9758;48.640;8.148;2023-11-22T08:20:27;7.10;61.20
19248;DHT22;9758;48.640;8.148;2023-11-22T08:22:55;7.00;61.10
19248;DHT22;9758;48.640;8.148;2023-11-22T08:25:22;7.00;61.10
19248;DHT22;9758;48.640;8.148;2023-11-22T08:27:50;6.90;61.00
19248;DHT22;9758;48.640;8.148;2023-11-22T08:30:19;6.90;61.00
19248;DHT22;9758;48.640;8.148;2023-11-22T08:32:47;6.80;61.00
19248;DHT22;9758;48.640;8.148;2023-11-22T08:35:19;6.80;61.00
19248;DHT22;9758;48.640;8.148;2023-11-22T08:37:47;6.80;61.10
19248;DHT22;9758;48.640;8.148;2023-11-22T08:40:17;6.70;61.00
19248;DHT22;9758;48.640;8.148;2023-11-22T08:42:46;6.70;61.10
19248;DHT22;9758;48.640;8.148;2023-11-22T08:45:13;6.60;61.10
19248;DHT22;9758;48.640;8.148;2023-11-22T08:47:40;6.60;61.10
19248;DHT22;9758;48.640;8.148;2023-11-22T08:50:08;6.60;61.20
19248;DHT22;9758;48.640;8.148;2023-11-22T08:52:43;6.60;61.10
19248;DHT22;9758;48.640;8.148;2023-11-22T08:55:12;6.60;61.20
19248;DHT22;9758;48.640;8.148;2023-11-22T08:57:41;6.60;61.10
19248;DHT22;9758;48.640;8.148;2023-11-22T09:00:09;6.60;61.10
19248;DHT22;9758;48.640;8.148;2023-11-22T09:02:36;6.50;61.10
19248;DHT22;9758;48.640;8.148;2023-11-22T09:05:05;6.50;61.20
19248;DHT22;9758;48.640;8.148;2023-11-22T09:07:33;6.50;61.20
19248;DHT22;9758;48.640;8.148;2023-11-22T09:10:01;6.50;61.30
19248;DHT22;9758;48.640;8.148;2023-11-22T09:12:34;6.50;61.30
19248;DHT22;9758;48.640;8.148;2023-11-22T09:15:04;6.50;61.50
19248;DHT22;9758;48.640;8.148;2023-11-22T09:17:37;6.60;61.50
19248;DHT22;9758;48.640;8.148;2023-11-22T09:20:09;6.60;61.50
19248;DHT22;9758;48.640;8.148;2023-11-22T09:22:38;6.60;61.50
19248;DHT22;9758;48.640;8.148;2023-11-22T09:25:10;6.70;61.60
19248;DHT22;9758;48.640;8.148;2023-11-22T09:27:37;6.70;61.40
19248;DHT22;9758;48.640;8.148;2023-11-22T09:30:08;6.70;61.20
19248;DHT22;9758;48.640;8.148;2023-11-22T09:32:43;6.70;61.20
19248;DHT22;9758;48.640;8.148;2023-11-22T09:35:11;6.60;61.30
19248;DHT22;9758;48.640;8.148;2023-11-22T09:37:39;6.60;61.40
19248;DHT22;9758;48.640;8.148;2023-11-22T09:40:10;6.60;61.40
19248;DHT22;9758;48.640;8.148;2023-11-22T09:42:38;6.50;61.20
19248;DHT22;9758;48.640;8.148;2023-11-22T09:45:08;6.50;61.20
19248;DHT22;9758;48.640;8.148;2023-11-22T09:47:36;6.50;61.20
19248;DHT22;9758;48.640;8.148;2023-11-22T09:50:05;6.50;61.40
19248;DHT22;9758;48.640;8.148;2023-11-22T09:52:37;6.40;61.20
19248;DHT22;9758;48.640;8.148;2023-11-22T09:55:08;6.40;61.50
19248;DHT22;9758;48.640;8.148;2023-11-22T09:57:37;6.40;61.50
19248;DHT22;9758;48.640;8.148;2023-11-22T10:00:09;6.40;61.40
19248;DHT22;9758;48.640;8.148;2023-11-22T10:02:40;6.40;61.70
19248;DHT22;9758;48.640;8.148;2023-11-22T10:05:07;6.40;61.50
19248;DHT22;9758;48.640;8.148;2023-11-22T10:07:35;6.40;61.70
19248;DHT22;9758;48.640;8.148;2023-11-22T10:10:02;6.40;61.90
19248;DHT22;9758;48.640;8.148;2023-11-22T10:12:32;6.40;62.00
19248;DHT22;9758;48.640;8.148;2023-11-22T10:15:13;6.50;62.00
19248;DHT22;9758;48.640;8.148;2023-11-22T10:17:47;6.60;62.10
19248;DHT22;9758;48.640;8.148;2023-11-22T10:20:16;6.60;62.00
19248;DHT22;9758;48.640;8.148;2023-11-22T10:22:45;6.70;62.00
19248;DHT22;9758;48.640;8.148;2023-11-22T10:25:13;6.70;61.70
19248;DHT22;9758;48.640;8.148;2023-11-22T10:27:44;6.80;61.80
19248;DHT22;9758;48.640;8.148;2023-11-22T10:30:13;6.90;62.00
19248;DHT22;9758;48.640;8.148;2023-11-22T10:32:41;6.90;61.60
19248;DHT22;9758;48.640;8.148;2023-11-22T10:35:08;6.90;61.30
19248;DHT22;9758;48.640;8.148;2023-11-22T10:37:35;6.90;61.50
19248;DHT22;9758;48.640;8.148;2023-11-22T10:40:07;6.90;61.70
19248;DHT22;9758;48.640;8.148;2023-11-22T10:42:36;7.00;61.60
19248;DHT22;9758;48.640;8.148;2023-11-22T10:45:05;7.00;61.70
19248;DHT22;9758;48.640;8.148;2023-11-22T10:47:37;7.00;61.50
19248;DHT22;9758;48.640;8.148;2023-11-22T10:50:05;7.10;61.30
19248;DHT22;9758;48.640;8.148;2023-11-22T10:52:35;7.10;61.10
19248;DHT22;9758;48.640;8.148;2023-11-22T10:55:03;7.00;60.90
19248;DHT22;9758;48.640;8.148;2023-11-22T10:57:32;7.00;61.20
19248;DHT22;9758;48.640;8.148;2023-11-22T11:00:03;7.00;61.30
19248;DHT22;9758;48.640;8.148;2023-11-22T11:02:38;7.00;61.50
19248;DHT22;9758;48.640;8.148;2023-11-22T11:05:12;7.10;61.40
19248;DHT22;9758;48.640;8.148;2023-11-22T11:07:48;7.20;61.30
19248;DHT22;9758;48.640;8.148;2023-11-22T11:10:18;7.20;61.20
19248;DHT22;9758;48.640;8.148;2023-11-22T11:12:46;7.20;61.40
19248;DHT22;9758;48.640;8.148;2023-11-22T11:15:13;7.30;61.20
19248;DHT22;9758;48.640;8.148;2023-11-22T11:17:44;7.30;61.10
19248;DHT22;9758;48.640;8.148;2023-11-22T11:20:13;7.30;62.00
19248;DHT22;9758;48.640;8.148;2023-11-22T11:22:43;7.30;60.90
19248;DHT22;9758;48.640;8.148;2023-11-22T11:25:14;7.30;60.70
19248;DHT22;9758;48.640;8.148;2023-11-22T11:27:44;7.20;60.70
19248;DHT22;9758;48.640;8.148;2023-11-22T11:30:41;7.10;60.90
19248;DHT22;9758;48.640;8.148;2023-11-22T11:33:11;7.10;61.20
19248;DHT22;9758;48.640;8.148;2023-11-22T11:35:42;7.20;61.20
19248;DHT22;9758;48.640;8.148;2023-11-22T11:38:12;7.10;60.60
19248;DHT22;9758;48.640;8.148;2023-11-22T11:40:40;7.00;60.90
19248;DHT22;9758;48.640;8.148;2023-11-22T11:43:07;7.10;61.10
19248;DHT22;9758;48.640;8.148;2023-11-22T11:45:37;7.00;61.10
19248;DHT22;9758;48.640;8.148;2023-11-22T11:48:05;7.00;60.90
19248;DHT22;9758;48.640;8.148;2023-11-22T11:50:33;7.00;61.10
19248;DHT22;9758;48.640;8.148;2023-11-22T11:53:08;7.10;61.30
19248;DHT22;9758;48.640;8.148;2023-11-22T11:55:35;7.10;61.20
19248;DHT22;9758;48.640;8.148;2023-11-22T11:58:06;7.10;61.20
19248;DHT22;9758;48.640;8.148;2023-11-22T12:00:35;7.20;61.10
19248;DHT22;9758;48.640;8.148;2023-11-22T12:03:06;7.20;61.00
19248;DHT22;9758;48.640;8.148;2023-11-22T12:05:34;7.20;61.10
19248;DHT22;9758;48.640;8.148;2023-11-22T12:08:01;7.20;61.10
19248;DHT22;9758;48.640;8.148;2023-11-22T12:10:28;7.20;60.90
19248;DHT22;9758;48.640;8.148;2023-11-22T12:13:02;7.20;60.80
19248;DHT22;9758;48.640;8.148;2023-11-22T12:15:29;7.20;60.80
19248;DHT22;9758;48.640;8.148;2023-11-22T12:17:56;7.20;60.60
19248;DHT22;9758;48.640;8.148;2023-11-22T12:20:23;7.10;60.70
19248;DHT22;9758;48.640;8.148;2023-11-22T12:22:53;7.10;60.90
19248;DHT22;9758;48.640;8.148;2023-11-22T12:25:20;7.00;61.00
19248;DHT22;9758;48.640;8.148;2023-11-22T12:27:49;7.00;60.80
19248;DHT22;9758;48.640;8.148;2023-11-22T12:30:29;7.00;60.90
19248;DHT22;9758;48.640;8.148;2023-11-22T12:32:57;7.00;60.90
19248;DHT22;9758;48.640;8.148;2023-11-22T12:35:26;7.00;60.90
19248;DHT22;9758;48.640;8.148;2023-11-22T12:37:54;7.00;61.10
19248;DHT22;9758;48.640;8.148;2023-11-22T12:40:21;7.00;61.30
19248;DHT22;9758;48.640;8.148;2023-11-22T12:42:49;7.10;61.40
19248;DHT22;9758;48.640;8.148;2023-11-22T12:45:20;7.20;61.20
19248;DHT22;9758;48.640;8.148;2023-11-22T12:48:22;7.20;61.00
19248;DHT22;9758;48.640;8.148;2023-11-22T12:50:52;7.20;61.00
19248;DHT22;9758;48.640;8.148;2023-11-22T12:53:20;7.30;61.20
19248;DHT22;9758;48.640;8.148;2023-11-22T12:55:49;7.30;61.00
19248;DHT22;9758;48.640;8.148;2023-11-22T12:58:17;7.40;60.90
19248;DHT22;9758;48.640;8.148;2023-11-22T13:00:44;7.40;61.00
19248;DHT22;9758;48.640;8.148;2023-11-22T13:03:12;7.40;60.90
19248;DHT22;9758;48.640;8.148;2023-11-22T13:05:42;7.50;60.90
19248;DHT22;9758;48.640;8.148;2023-11-22T13:08:10;7.50;60.60
19248;DHT22;9758;48.640;8.148;2023-11-22T13:10:39;7.50;60.60
19248;DHT22;9758;48.640;8.148;2023-11-22T13:13:06;7.40;60.70
19248;DHT22;9758;48.640;8.148;2023-11-22T13:15:35;7.50;60.80
19248;DHT22;9758;48.640;8.148;2023-11-22T13:18:02;7.50;60.90
19248;DHT22;9758;48.640;8.148;2023-11-22T13:20:46;7.50;60.80
19248;DHT22;9758;48.640;8.148;2023-11-22T13:23:14;7.60;60.90
19248;DHT22;9758;48.640;8.148;2023-11-22T13:25:41;7.60;60.80
19248;DHT22;9758;48.640;8.148;2023-11-22T13:28:08;7.70;60.90
19248;DHT22;9758;48.640;8.148;2023-11-22T13:30:35;7.70;60.90
19248;DHT22;9758;48.640;8.148;2023-11-22T13:33:02;7.80;60.80
19248;DHT22;9758;48.640;8.148;2023-11-22T13:35:29;7.90;60.80
19248;DHT22;9758;48.640;8.148;2023-11-22T13:37:59;7.90;60.60
19248;DHT22;9758;48.640;8.148;2023-11-22T13:40:27;8.00;60.60
19248;DHT22;9758;48.640;8.148;2023-11-22T13:42:56;8.00;60.50
19248;DHT22;9758;48.640;8.148;2023-11-22T13:45:23;8.00;60.40
19248;DHT22;9758;48.640;8.148;2023-11-22T13:47:52;8.10;60.30
19248;DHT22;9758;48.640;8.148;2023-11-22T13:50:26;8.00;60.00
19248;DHT22;9758;48.640;8.148;2023-11-22T13:52:54;8.00;60.00
19248;DHT22;9758;48.640;8.148;2023-11-22T13:55:23;7.90;60.20
19248;DHT22;9758;48.640;8.148;2023-11-22T13:57:50;7.90;60.30
19248;DHT22;9758;48.640;8.148;2023-11-22T14:00:18;7.90;60.30
19248;DHT22;9758;48.640;8.148;2023-11-22T14:02:48;7.90;60.20
19248;DHT22;9758;48.640;8.148;2023-11-22T14:05:16;7.80;59.90
19248;DHT22;9758;48.640;8.148;2023-11-22T14:07:43;7.60;59.90
19248;DHT22;9758;48.640;8.148;2023-11-22T14:10:11;7.60;60.00
19248;DHT22;9758;48.640;8.148;2023-11-22T14:12:43;7.50;60.30
19248;DHT22;9758;48.640;8.148;2023-11-22T14:15:12;7.40;60.20
19248;DHT22;9758;48.640;8.148;2023-11-22T14:17:39;7.40;60.30
19248;DHT22;9758;48.640;8.148;2023-11-22T14:20:07;7.40;60.50
19248;DHT22;9758;48.640;8.148;2023-11-22T14:22:35;7.40;61.20
19248;DHT22;9758;48.640;8.148;2023-11-22T14:25:02;7.40;60.60
19248;DHT22;9758;48.640;8.148;2023-11-22T14:27:32;7.40;60.70
19248;DHT22;9758;48.640;8.148;2023-11-22T14:30:02;7.40;60.80
19248;DHT22;9758;48.640;8.148;2023-11-22T14:32:32;7.40;60.70
19248;DHT22;9758;48.640;8.148;2023-11-22T14:35:18;7.50;60.60
19248;DHT22;9758;48.640;8.148;2023-11-22T14:37:45;7.50;60.60
19248;DHT22;9758;48.640;8.148;2023-11-22T14:40:12;7.60;60.50
19248;DHT22;9758;48.640;8.148;2023-11-22T14:42:41;7.60;60.50
19248;DHT22;9758;48.640;8.148;2023-11-22T14:45:10;7.60;60.30
19248;DHT22;9758;48.640;8.148;2023-11-22T14:47:38;7.60;60.30
19248;DHT22;9758;48.640;8.148;2023-11-22T14:50:06;7.60;60.30
19248;DHT22;9758;48.640;8.148;2023-11-22T14:52:36;7.60;60.20
19248;DHT22;9758;48.640;8.148;2023-11-22T14:55:03;7.60;60.20
19248;DHT22;9758;48.640;8.148;2023-11-22T14:57:30;7.60;60.20
19248;DHT22;9758;48.640;8.148;2023-11-22T14:59:57;7.60;60.20
19248;DHT22;9758;48.640;8.148;2023-11-22T15:02:26;7.70;60.20
19248;DHT22;9758;48.640;8.148;2023-11-22T15:04:53;7.70;60.00
19248;DHT22;9758;48.640;8.148;2023-11-22T15:07:19;7.60;59.90
19248;DHT22;9758;48.640;8.148;2023-11-22T15:09:47;7.60;60.00
19248;DHT22;9758;48.640;8.148;2023-11-22T15:12:27;7.50;60.10
19248;DHT22;9758;48.640;8.148;2023-11-22T15:14:56;7.50;60.20
19248;DHT22;9758;48.640;8.148;2023-11-22T15:17:22;7.50;60.20
19248;DHT22;9758;48.640;8.148;2023-11-22T15:19:51;7.50;60.30
19248;DHT22;9758;48.640;8.148;2023-11-22T15:22:17;7.50;61.00
19248;DHT22;9758;48.640;8.148;2023-11-22T15:24:44;7.50;60.20
19248;DHT22;9758;48.640;8.148;2023-11-22T15:27:11;7.50;60.10
19248;DHT22;9758;48.640;8.148;2023-11-22T15:29:38;7.50;60.10
19248;DHT22;9758;48.640;8.148;2023-11-22T15:32:05;7.50;60.10
19248;DHT22;9758;48.640;8.148;2023-11-22T15:34:32;7.40;60.00
19248;DHT22;9758;48.640;8.148;2023-11-22T15:37:00;7.40;59.90
19248;DHT22;9758;48.640;8.148;2023-11-22T15:39:27;7.40;59.90
19248;DHT22;9758;48.640;8.148;2023-11-22T15:41:54;7.30;60.00
19248;DHT22;9758;48.640;8.148;2023-11-22T15:44:21;7.30;60.00
19248;DHT22;9758;48.640;8.148;2023-11-22T15:46:47;7.20;60.10
19248;DHT22;9758;48.640;8.148;2023-11-22T15:49:15;7.30;60.30
19248;DHT22;9758;48.640;8.148;2023-11-22T15:51:41;7.30;60.40
19248;DHT22;9758;48.640;8.148;2023-11-22T15:54:10;7.30;60.30
19248;DHT22;9758;48.640;8.148;2023-11-22T15:56:37;7.20;60.20
19248;DHT22;9758;48.640;8.148;2023-11-22T15:59:05;7.30;60.20
19248;DHT22;9758;48.640;8.148;2023-11-22T16:01:32;7.30;60.00
19248;DHT22;9758;48.640;8.148;2023-11-22T16:03:58;7.10;59.90
19248;DHT22;9758;48.640;8.148;2023-11-22T16:06:25;7.10;60.00